7IL3 weather

Lutz RLA Restricted Landing Area
Greenvalley, Illinois, United States

Public forecast

Using degrees Fahrenheit for public forecast. Weather courtesy of forecast.io.

METAR (pilot weather report)

Closest report is General Wayne A. Downing Peoria International Airport, 14.8 nm (27.3 km) NNW. Retrieved 2019/06/17 16:54 UTC (1 hour ago):

KPIA 171654Z 05006KT 10SM OVC010 19/15 A3001 RMK AO2 SLP160 T01890150 $

TAF (pilot weather forecast)

Closest forecast is General Wayne A. Downing Peoria International Airport, 14.8 nm (27.3 km) NNW. Retrieved 2019/06/17 12:51 UTC (5 hours ago):

TAF KPIA 171148Z 1712/1812 05005KT 4SM BR OVC004 FM171300 05005KT 5SM BR OVC015 FM171400 05005KT P6SM OVC024 FM171800 05005KT P6SM OVC045 FM180800 00000KT 5SM BR SCT050